createdAt,value
2022-09-25T03:03:08.564Z,100621.47
2022-09-25T03:05:36.860Z,100619.66
2022-09-25T03:08:22.186Z,100609.09
2022-09-25T03:10:48.928Z,100610.91
2022-09-25T03:13:22.409Z,100622.41
2022-09-25T03:16:06.691Z,100614.03
2022-09-25T03:18:34.337Z,100605.63
2022-09-25T03:21:00.761Z,100608.22
2022-09-25T03:23:27.198Z,100606.59
2022-09-25T03:25:54.881Z,100609.22
2022-09-25T03:28:22.656Z,100612.88
2022-09-25T03:31:06.653Z,100611.94
2022-09-25T03:33:38.605Z,100606.53
2022-09-25T03:36:11.878Z,100610.81
2022-09-25T03:38:41.176Z,100605.63
2022-09-25T03:41:09.367Z,100606.75
2022-09-25T03:43:37.369Z,100602.84
2022-09-25T03:46:05.942Z,100603.31
2022-09-25T03:48:32.657Z,100605.47
2022-09-25T03:51:00.790Z,100608.84
2022-09-25T03:53:31.609Z,100597.53
2022-09-25T03:55:58.027Z,100595.53
2022-09-25T03:58:24.624Z,100596.03
2022-09-25T04:00:51.030Z,100597.78
2022-09-25T04:03:18.065Z,100597.06
2022-09-25T04:05:44.598Z,100598.19
2022-09-25T04:08:11.202Z,100595.78
2022-09-25T04:10:38.756Z,100591.06
2022-09-25T04:13:06.760Z,100589.00
2022-09-25T04:15:33.885Z,100592.31
2022-09-25T04:18:05.727Z,100590.41
2022-09-25T04:20:33.219Z,100589.13
2022-09-25T04:22:59.651Z,100592.41
2022-09-25T04:25:26.043Z,100583.38
2022-09-25T04:27:55.349Z,100589.06
2022-09-25T04:30:22.901Z,100587.13
2022-09-25T04:33:08.185Z,100587.56
2022-09-25T04:35:34.700Z,100592.72
2022-09-25T04:38:01.319Z,100589.50
2022-09-25T04:40:28.848Z,100589.25
2022-09-25T04:42:57.375Z,100593.75
2022-09-25T04:45:23.900Z,100589.88
2022-09-25T04:47:50.375Z,100588.16
2022-09-25T04:50:16.805Z,100585.31
2022-09-25T04:52:43.190Z,100591.69
2022-09-25T04:55:09.593Z,100590.38
2022-09-25T04:57:58.818Z,100597.50
2022-09-25T05:00:24.272Z,100592.47
2022-09-25T05:02:50.935Z,100595.56
2022-09-25T05:05:17.460Z,100588.63
2022-09-25T05:07:57.025Z,100591.84
2022-09-25T05:10:25.712Z,100594.72
2022-09-25T05:12:56.742Z,100591.66
2022-09-25T05:15:23.290Z,100596.75
2022-09-25T05:17:50.087Z,100592.41
2022-09-25T05:20:17.193Z,100597.16
2022-09-25T05:22:44.292Z,100590.22
2022-09-25T05:25:10.704Z,100596.16
2022-09-25T05:27:37.168Z,100598.44
2022-09-25T05:30:03.991Z,100595.66
2022-09-25T05:32:31.003Z,100602.44
2022-09-25T05:34:57.471Z,100602.56
2022-09-25T05:37:24.369Z,100615.94
2022-09-25T05:39:50.818Z,100614.25
2022-09-25T05:42:19.270Z,100622.53
2022-09-25T05:44:46.104Z,100618.19
2022-09-25T05:47:12.653Z,100604.59
2022-09-25T05:49:39.050Z,100608.94
2022-09-25T05:52:05.459Z,100601.78
2022-09-25T05:54:32.053Z,100604.78
2022-09-25T05:56:58.782Z,100601.91
2022-09-25T05:59:25.195Z,100603.84
2022-09-25T06:01:51.733Z,100612.41
2022-09-25T06:04:18.227Z,100609.88
2022-09-25T06:06:44.652Z,100613.53
2022-09-25T06:09:11.060Z,100611.47
2022-09-25T06:11:37.454Z,100608.50
2022-09-25T06:14:03.911Z,100613.59
2022-09-25T06:16:31.143Z,100612.19
2022-09-25T06:18:57.599Z,100607.66
2022-09-25T06:21:24.356Z,100603.28
2022-09-25T06:23:50.778Z,100605.84
2022-09-25T06:26:17.266Z,100611.34
2022-09-25T06:28:43.760Z,100599.81
2022-09-25T06:31:10.271Z,100606.34
2022-09-25T06:33:36.673Z,100610.25
2022-09-25T06:36:05.570Z,100610.69
2022-09-25T06:38:34.836Z,100616.81
2022-09-25T06:41:01.740Z,100616.69
2022-09-25T06:43:28.929Z,100619.84
2022-09-25T06:45:58.852Z,100613.84
2022-09-25T06:48:25.381Z,100616.03
2022-09-25T06:50:53.833Z,100611.53
2022-09-25T06:53:21.994Z,100617.09
2022-09-25T06:55:49.645Z,100616.44
2022-09-25T06:58:19.282Z,100609.31
2022-09-25T07:00:47.242Z,100615.00
2022-09-25T07:03:32.380Z,100621.31
2022-09-25T07:06:04.155Z,100612.38
2022-09-25T07:08:31.031Z,100616.91
2022-09-25T07:10:58.953Z,100617.81
2022-09-25T07:13:29.814Z,100621.41
2022-09-25T07:15:59.087Z,100611.53
2022-09-25T07:18:26.620Z,100615.19
2022-09-25T07:20:54.050Z,100612.69
2022-09-25T07:23:22.439Z,100615.91
2022-09-25T07:25:50.009Z,100608.41
2022-09-25T07:28:19.003Z,100599.16
2022-09-25T07:30:46.704Z,100600.75
2022-09-25T07:33:13.174Z,100596.59
2022-09-25T07:35:39.884Z,100597.19
2022-09-25T07:38:06.290Z,100602.59
2022-09-25T07:40:35.428Z,100603.41
2022-09-25T07:43:02.922Z,100608.75
2022-09-25T07:45:32.695Z,100609.44
2022-09-25T07:48:00.958Z,100610.91
2022-09-25T07:50:28.406Z,100610.50
2022-09-25T07:52:54.873Z,100614.06
2022-09-25T07:55:21.883Z,100607.22
2022-09-25T07:57:49.366Z,100609.09
2022-09-25T08:00:17.037Z,100606.81
2022-09-25T08:02:43.483Z,100603.19
2022-09-25T08:05:11.593Z,100600.03
2022-09-25T08:07:38.166Z,100606.34
2022-09-25T08:10:05.109Z,100592.25
2022-09-25T08:12:31.497Z,100597.06
2022-09-25T08:14:58.042Z,100591.72
2022-09-25T08:17:24.450Z,100597.47
2022-09-25T08:19:50.847Z,100593.31
2022-09-25T08:22:17.361Z,100596.41
2022-09-25T08:24:43.805Z,100591.03
2022-09-25T08:27:10.274Z,100585.69
2022-09-25T08:29:36.682Z,100593.19
2022-09-25T08:32:03.084Z,100593.38
2022-09-25T08:34:40.503Z,100595.06
2022-09-25T08:37:08.359Z,100587.19
2022-09-25T08:39:34.910Z,100590.91
2022-09-25T08:42:02.197Z,100585.53
2022-09-25T08:45:20.976Z,100588.47
2022-09-25T08:48:09.744Z,100586.19
2022-09-25T08:50:36.703Z,100587.19
2022-09-25T08:53:14.908Z,100590.31
2022-09-25T08:56:00.616Z,100591.97
2022-09-25T08:58:31.597Z,100590.91
2022-09-25T09:01:02.268Z,100590.63
2022-09-25T09:03:30.625Z,100595.88
2022-09-25T09:06:11.997Z,100585.09
2022-09-25T09:08:40.877Z,100586.59
2022-09-25T09:11:15.860Z,100587.84
2022-09-25T09:13:54.981Z,100587.81
2022-09-25T09:16:33.982Z,100581.81
2022-09-25T09:19:04.179Z,100576.53
2022-09-25T09:21:37.687Z,100573.00
2022-09-25T09:24:45.368Z,100569.63
2022-09-25T09:27:24.575Z,100574.63
2022-09-25T09:30:08.234Z,100574.47
2022-09-25T09:32:51.448Z,100575.97
2022-09-25T09:35:47.128Z,100578.88
2022-09-25T09:38:23.225Z,100574.03
2022-09-25T09:41:24.873Z,100565.44
2022-09-25T09:44:12.252Z,100560.50
2022-09-25T09:47:06.132Z,100565.31
2022-09-25T09:49:51.098Z,100557.53
2022-09-25T09:52:28.389Z,100555.06
2022-09-25T09:55:33.049Z,100556.03
2022-09-25T09:58:05.618Z,100549.31
2022-09-25T10:00:32.499Z,100560.03
2022-09-25T10:03:20.984Z,100554.03
2022-09-25T10:05:56.160Z,100548.22
2022-09-25T10:08:22.609Z,100544.09
2022-09-25T10:10:59.037Z,100539.59
2022-09-25T10:13:32.723Z,100537.34
2022-09-25T10:16:03.947Z,100536.47
2022-09-25T10:18:42.520Z,100533.97
2022-09-25T10:21:16.361Z,100540.91
2022-09-25T10:23:53.885Z,100536.72
2022-09-25T10:26:37.099Z,100537.84
2022-09-25T10:29:21.597Z,100536.03
2022-09-25T10:31:56.802Z,100544.16
2022-09-25T10:34:24.291Z,100537.84
2022-09-25T10:36:53.086Z,100534.78
2022-09-25T10:39:48.897Z,100535.03
2022-09-25T10:43:01.565Z,100535.63
2022-09-25T10:45:31.927Z,100529.72
2022-09-25T10:48:17.476Z,100539.34
2022-09-25T10:50:44.751Z,100529.84
2022-09-25T10:53:29.998Z,100527.56
2022-09-25T10:56:08.605Z,100523.44
2022-09-25T10:58:50.621Z,100522.34
2022-09-25T11:01:17.909Z,100526.16
2022-09-25T11:03:47.407Z,100526.88
2022-09-25T11:06:21.033Z,100523.06
2022-09-25T11:08:55.551Z,100521.28
2022-09-25T11:11:26.837Z,100524.00
2022-09-25T11:13:59.793Z,100532.38
2022-09-25T11:16:43.451Z,100533.44
2022-09-25T11:19:34.684Z,100532.66
2022-09-25T11:22:26.758Z,100528.09
2022-09-25T11:25:04.548Z,100526.41
2022-09-25T11:27:31.325Z,100516.66
2022-09-25T11:30:12.265Z,100512.16
2022-09-25T11:33:09.317Z,100520.44
2022-09-25T11:35:48.577Z,100513.63
2022-09-25T11:39:04.727Z,100497.69
2022-09-25T11:41:49.328Z,100495.78
2022-09-25T11:44:44.696Z,100491.28
2022-09-25T11:47:29.870Z,100493.75
2022-09-25T11:49:59.490Z,100500.16
2022-09-25T11:52:39.979Z,100500.66
2022-09-25T11:55:54.390Z,100499.59
2022-09-25T11:58:26.569Z,100490.41
2022-09-25T12:00:59.140Z,100484.16
2022-09-25T12:03:29.485Z,100471.13
2022-09-25T12:06:07.953Z,100473.44
2022-09-25T12:08:52.791Z,100470.38
2022-09-25T12:11:47.033Z,100466.50
2022-09-25T12:14:39.813Z,100457.63
2022-09-25T12:17:09.486Z,100460.44
2022-09-25T12:19:47.998Z,100470.19
2022-09-25T12:22:27.521Z,100464.22
2022-09-25T12:25:07.159Z,100450.38
2022-09-25T12:27:54.767Z,100451.56
2022-09-25T12:30:23.859Z,100450.25
2022-09-25T12:33:14.413Z,100448.00
2022-09-25T12:35:48.867Z,100457.91
2022-09-25T12:38:30.174Z,100453.91
2022-09-25T12:41:19.954Z,100453.41
2022-09-25T12:44:03.005Z,100451.91
2022-09-25T12:46:37.651Z,100445.72
2022-09-25T12:49:42.382Z,100443.28
2022-09-25T12:52:17.501Z,100433.09
2022-09-25T12:55:13.565Z,100437.94
2022-09-25T12:57:49.186Z,100438.47
2022-09-25T13:00:21.331Z,100434.88
2022-09-25T13:02:55.595Z,100433.59
2022-09-25T13:05:37.855Z,100432.19
2022-09-25T13:08:23.639Z,100428.78
2022-09-25T13:10:58.052Z,100425.09
2022-09-25T13:13:28.037Z,100424.25
2022-09-25T13:15:57.847Z,100425.56
2022-09-25T13:18:27.198Z,100433.03
2022-09-25T13:20:56.537Z,100423.06
2022-09-25T13:23:30.002Z,100424.56
2022-09-25T13:26:01.200Z,100419.59
2022-09-25T13:28:36.622Z,100426.84
2022-09-25T13:31:09.201Z,100432.41
2022-09-25T13:33:49.430Z,100425.78
2022-09-25T13:36:23.506Z,100428.41
2022-09-25T13:39:18.373Z,100413.81
2022-09-25T13:41:50.747Z,100414.88
2022-09-25T13:44:42.166Z,100409.28
2022-09-25T13:47:29.941Z,100410.59
2022-09-25T13:50:11.936Z,100409.59
2022-09-25T13:52:38.281Z,100406.16
2022-09-25T13:55:13.743Z,100402.03
2022-09-25T13:57:58.517Z,100394.72
2022-09-25T14:00:27.069Z,100396.16
2022-09-25T14:03:01.504Z,100389.09
2022-09-25T14:05:36.063Z,100385.91
2022-09-25T14:08:12.701Z,100398.84
2022-09-25T14:10:51.845Z,100389.47
2022-09-25T14:13:25.247Z,100392.47
2022-09-25T14:15:56.609Z,100386.16
2022-09-25T14:18:27.876Z,100393.63
2022-09-25T14:20:59.704Z,100386.16
2022-09-25T14:23:29.893Z,100389.09
2022-09-25T14:25:58.488Z,100380.34
2022-09-25T14:28:30.470Z,100380.81
2022-09-25T14:31:15.926Z,100377.78
2022-09-25T14:34:13.059Z,100378.25
2022-09-25T14:37:01.736Z,100376.06
2022-09-25T14:39:36.250Z,100372.06
2022-09-25T14:42:08.942Z,100368.00
2022-09-25T14:44:36.019Z,100364.28
2022-09-25T14:47:04.062Z,100364.50
2022-09-25T14:49:37.638Z,100365.72
2022-09-25T14:52:17.401Z,100369.22
2022-09-25T14:54:46.424Z,100363.09
2022-09-25T14:57:19.050Z,100369.22
2022-09-25T14:59:55.858Z,100367.09
2022-09-25T15:02:34.130Z,100371.78
2022-09-25T15:05:29.408Z,100360.00
2022-09-25T15:07:59.407Z,100367.56
2022-09-25T15:10:38.362Z,100370.66
2022-09-25T15:13:06.025Z,100365.13
2022-09-25T15:15:33.031Z,100367.78
2022-09-25T15:18:02.529Z,100368.44
2022-09-25T15:20:32.773Z,100376.34
2022-09-25T15:23:15.253Z,100368.81
2022-09-25T15:25:46.793Z,100370.72
2022-09-25T15:28:25.319Z,100368.88
2022-09-25T15:31:00.397Z,100367.47
2022-09-25T15:33:29.434Z,100356.00
2022-09-25T15:35:56.861Z,100357.88
2022-09-25T15:38:37.725Z,100360.66
2022-09-25T15:41:08.010Z,100352.53
2022-09-25T15:43:34.856Z,100354.34
2022-09-25T15:46:07.343Z,100349.03
2022-09-25T15:48:56.392Z,100352.44
2022-09-25T15:51:28.107Z,100353.69
2022-09-25T15:54:03.229Z,100346.66
2022-09-25T15:56:46.149Z,100345.88
2022-09-25T15:59:20.468Z,100350.75
2022-09-25T16:02:06.070Z,100346.84
2022-09-25T16:04:49.386Z,100341.03
2022-09-25T16:07:35.046Z,100344.09
2022-09-25T16:10:11.598Z,100345.22
2022-09-25T16:12:46.003Z,100340.56
2022-09-25T16:15:27.538Z,100337.44
2022-09-25T16:18:01.425Z,100333.59
2022-09-25T16:20:36.953Z,100332.78
2022-09-25T16:23:07.572Z,100329.25
2022-09-25T16:25:37.476Z,100341.50
2022-09-25T16:28:34.729Z,100341.78
2022-09-25T16:31:06.418Z,100340.28
2022-09-25T16:33:40.762Z,100345.31
2022-09-25T16:36:17.706Z,100340.28
2022-09-25T16:39:02.795Z,100347.59
2022-09-25T16:41:29.903Z,100351.44
2022-09-25T16:44:14.481Z,100349.19
2022-09-25T16:47:03.646Z,100348.63
2022-09-25T16:49:32.932Z,100348.88
2022-09-25T16:52:00.799Z,100354.34
2022-09-25T16:54:31.595Z,100353.47
2022-09-25T16:56:59.374Z,100355.84
2022-09-25T16:59:28.272Z,100352.69
2022-09-25T17:01:59.147Z,100349.06
2022-09-25T17:04:28.124Z,100346.22
2022-09-25T17:06:58.125Z,100348.72
2022-09-25T17:09:28.273Z,100342.84
2022-09-25T17:12:05.179Z,100340.75
2022-09-25T17:14:31.844Z,100342.06
2022-09-25T17:16:58.988Z,100329.50
2022-09-25T17:19:25.629Z,100331.66
2022-09-25T17:21:53.536Z,100329.19
2022-09-25T17:24:23.799Z,100327.94
2022-09-25T17:26:51.905Z,100332.75
2022-09-25T17:29:20.007Z,100327.75
2022-09-25T17:31:46.725Z,100333.03
2022-09-25T17:34:25.144Z,100329.50
2022-09-25T17:36:52.262Z,100335.81
2022-09-25T17:39:18.722Z,100341.25
2022-09-25T17:41:45.260Z,100342.50
2022-09-25T17:44:16.754Z,100341.09
2022-09-25T17:46:43.743Z,100347.75
2022-09-25T17:49:11.511Z,100344.59
2022-09-25T17:51:39.024Z,100337.56
2022-09-25T17:54:06.643Z,100341.06
2022-09-25T17:56:37.962Z,100339.38
2022-09-25T17:59:05.338Z,100338.59
2022-09-25T18:01:38.892Z,100331.13
2022-09-25T18:04:18.937Z,100345.72
2022-09-25T18:06:45.436Z,100347.81
2022-09-25T18:09:11.822Z,100340.56
2022-09-25T18:11:42.616Z,100343.91
2022-09-25T18:14:11.777Z,100352.41
2022-09-25T18:16:40.576Z,100343.31
2022-09-25T18:19:25.548Z,100343.50
2022-09-25T18:22:10.831Z,100345.78
2022-09-25T18:24:37.595Z,100344.09
2022-09-25T18:27:04.086Z,100346.56
2022-09-25T18:29:30.492Z,100343.47
2022-09-25T18:31:56.895Z,100337.25
2022-09-25T18:34:25.968Z,100339.75
2022-09-25T18:36:52.472Z,100334.34
2022-09-25T18:39:20.279Z,100336.00
2022-09-25T18:41:48.101Z,100329.78
2022-09-25T18:44:17.524Z,100337.47
2022-09-25T18:46:44.009Z,100337.91
2022-09-25T18:49:10.970Z,100332.06
2022-09-25T18:51:37.534Z,100333.94
2022-09-25T18:54:04.110Z,100337.69
2022-09-25T18:56:31.772Z,100347.91
2022-09-25T18:58:58.186Z,100342.50
2022-09-25T19:01:24.832Z,100345.44
2022-09-25T19:03:52.528Z,100342.72
2022-09-25T19:06:20.201Z,100341.63
2022-09-25T19:08:55.831Z,100345.19
2022-09-25T19:11:24.427Z,100335.38
2022-09-25T19:13:50.994Z,100328.91
2022-09-25T19:16:19.005Z,100325.59
2022-09-25T19:18:45.780Z,100328.50
2022-09-25T19:21:15.105Z,100334.13
2022-09-25T19:23:43.128Z,100333.72
2022-09-25T19:26:14.035Z,100337.03
2022-09-25T19:28:41.283Z,100340.78
2022-09-25T19:31:14.020Z,100334.75
2022-09-25T19:33:40.593Z,100335.78
2022-09-25T19:36:12.061Z,100333.06
2022-09-25T19:38:40.134Z,100321.00
2022-09-25T19:41:18.660Z,100317.66
2022-09-25T19:43:45.725Z,100321.41
2022-09-25T19:46:14.784Z,100318.69
2022-09-25T19:48:41.415Z,100318.72
2022-09-25T19:51:08.388Z,100324.13
2022-09-25T19:53:35.685Z,100323.28
2022-09-25T19:56:02.456Z,100322.22
2022-09-25T19:58:35.248Z,100322.88
2022-09-25T20:01:03.016Z,100323.66
